Puget — AEQW — position and weather

sailwx.info

Track history (hours):
 
Tides and Currents Weather Stations Pressure Air Temp Water Temp Dewpoint Dewpoint Depression Visibility Wind Speed Wind Dir Waves Ship Positions

Puget

Last reported at 2014-Dec-17 23:33 UTC. Time now 2014-Dec-22 22:03 UTC.
Position N 47°40' W 122°24'.

Length 20 m; draft 0.2 m.

Type: Ship. MMSI: 369970510.

Date/timePositionNaut miles runAvg speedWind from/ knotsBaromVisibWave heightAir tempDewpointWater temp
2014-Dec-17 23:33N 47°40' W 122°24'0 0.0
2014-Dec-17 22:33N 47°40' W 122°24'0 0.0
2014-Dec-17 21:33N 47°40' W 122°24'0 0.0
2014-Dec-17 20:33N 47°40' W 122°24'2 2.4
2014-Dec-17 19:33N 47°38' W 122°26'8 8.3
2014-Dec-17 18:33N 47°30' W 122°24'9 8.9
2014-Dec-17 17:33N 47°21' W 122°23'5 5.1
2014-Dec-17 16:33N 47°17' W 122°24'1 0.1
2014-Dec-17 00:33N 47°17' W 122°25'4 3.7
2014-Dec-16 23:33N 47°20' W 122°29'2 2.4
2014-Dec-16 22:33N 47°20' W 122°32'2 2.1
2014-Dec-16 21:33N 47°19' W 122°31'1 0.5
2014-Dec-16 20:33N 47°18' W 122°30'1 0.7
2014-Dec-16 19:33N 47°18' W 122°30'0 0.4
2014-Dec-16 18:33N 47°17' W 122°29'2 1.9
2014-Dec-16 17:33N 47°18' W 122°27'2 1.8
2014-Dec-16 16:32N 47°17' W 122°24'0 0.0
2014-Dec-15 23:27N 47°17' W 122°25'2 2.3
2014-Dec-15 22:34N 47°17' W 122°28'2 1.9
2014-Dec-15 21:34N 47°19' W 122°28'4 4.2
2014-Dec-15 20:33N 47°23' W 122°24'4 3.7
2014-Dec-15 19:33N 47°26' W 122°22'7 7.4
2014-Dec-15 18:33N 47°33' W 122°25'7 6.7
2014-Dec-15 17:34N 47°40' W 122°24'0 0.1
2014-Dec-15 16:33N 47°40' W 122°24'0 0.0
2014-Dec-15 15:33N 47°40' W 122°24'  
2014-Dec-08 23:28N 47°40' W 122°24'2 2.7
2014-Dec-08 22:33N 47°38' W 122°26'7 6.8
2014-Dec-08 21:33N 47°31' W 122°25'2 1.8
2014-Dec-08 20:33N 47°33' W 122°25'0 0.4
2014-Dec-08 19:33N 47°33' W 122°25'0 0.1
2014-Dec-08 18:33N 47°33' W 122°25'1 1.5
2014-Dec-08 17:33N 47°35' W 122°25'5 5.0
2014-Dec-08 16:33N 47°40' W 122°26'  
Track history (hours):
 
Tides and Currents Weather Stations Pressure Air Temp Water Temp Dewpoint Dewpoint Depression Visibility Wind Speed Wind Dir Waves Ship Positions

Puget

Last reported at 2014-Dec-17 23:33 UTC. Time now 2014-Dec-22 22:04 UTC.
Position N 47°40' W 122°24'.

Length 20 m; draft 0.2 m.

Type: Ship. MMSI: 369970510.

Date/timePositionNaut miles runAvg speedWind from/ knotsBaromVisibWave heightAir tempDewpointWater temp
2014-Dec-17 23:33N 47°40' W 122°24'0 0.0
2014-Dec-17 22:33N 47°40' W 122°24'0 0.0
2014-Dec-17 21:33N 47°40' W 122°24'0 0.0
2014-Dec-17 20:33N 47°40' W 122°24'2 2.4
2014-Dec-17 19:33N 47°38' W 122°26'8 8.3
2014-Dec-17 18:33N 47°30' W 122°24'9 8.9
2014-Dec-17 17:33N 47°21' W 122°23'5 5.1
2014-Dec-17 16:33N 47°17' W 122°24'1 0.1
2014-Dec-17 00:33N 47°17' W 122°25'4 3.7
2014-Dec-16 23:33N 47°20' W 122°29'2 2.4
2014-Dec-16 22:33N 47°20' W 122°32'2 2.1
2014-Dec-16 21:33N 47°19' W 122°31'1 0.5
2014-Dec-16 20:33N 47°18' W 122°30'1 0.7
2014-Dec-16 19:33N 47°18' W 122°30'0 0.4
2014-Dec-16 18:33N 47°17' W 122°29'2 1.9
2014-Dec-16 17:33N 47°18' W 122°27'2 1.8
2014-Dec-16 16:32N 47°17' W 122°24'0 0.0
2014-Dec-15 23:27N 47°17' W 122°25'2 2.3
2014-Dec-15 22:34N 47°17' W 122°28'2 1.9
2014-Dec-15 21:34N 47°19' W 122°28'4 4.2
2014-Dec-15 20:33N 47°23' W 122°24'4 3.7
2014-Dec-15 19:33N 47°26' W 122°22'7 7.4
2014-Dec-15 18:33N 47°33' W 122°25'7 6.7
2014-Dec-15 17:34N 47°40' W 122°24'0 0.1
2014-Dec-15 16:33N 47°40' W 122°24'0 0.0
2014-Dec-15 15:33N 47°40' W 122°24'  
2014-Dec-08 23:28N 47°40' W 122°24'2 2.7
2014-Dec-08 22:33N 47°38' W 122°26'7 6.8
2014-Dec-08 21:33N 47°31' W 122°25'2 1.8
2014-Dec-08 20:33N 47°33' W 122°25'0 0.4
2014-Dec-08 19:33N 47°33' W 122°25'0 0.1
2014-Dec-08 18:33N 47°33' W 122°25'1 1.5
2014-Dec-08 17:33N 47°35' W 122°25'5 5.0
2014-Dec-08 16:33N 47°40' W 122°26'  

Dump ship's entire track history